sensor_id;sensor_type;location;lat;lon;timestamp;temperature;humidity
28193;DHT22;15473;50.840;3.396;2022-08-24T00:00:21;20.10;99.90
28193;DHT22;15473;50.840;3.396;2022-08-24T00:02:51;20.10;99.90
28193;DHT22;15473;50.840;3.396;2022-08-24T00:05:22;20.10;99.90
28193;DHT22;15473;50.840;3.396;2022-08-24T00:07:52;20.10;99.90
28193;DHT22;15473;50.840;3.396;2022-08-24T00:10:23;20.10;99.90
28193;DHT22;15473;50.840;3.396;2022-08-24T00:12:54;20.10;99.90
28193;DHT22;15473;50.840;3.396;2022-08-24T00:15:24;20.10;99.90
28193;DHT22;15473;50.840;3.396;2022-08-24T00:17:54;20.10;99.90
28193;DHT22;15473;50.840;3.396;2022-08-24T00:20:25;20.10;99.90
28193;DHT22;15473;50.840;3.396;2022-08-24T00:22:55;20.00;99.90
28193;DHT22;15473;50.840;3.396;2022-08-24T00:25:25;20.00;99.90
28193;DHT22;15473;50.840;3.396;2022-08-24T00:27:55;20.00;99.90
28193;DHT22;15473;50.840;3.396;2022-08-24T00:30:25;19.90;99.90
28193;DHT22;15473;50.840;3.396;2022-08-24T00:32:56;19.80;99.90
28193;DHT22;15473;50.840;3.396;2022-08-24T00:35:26;19.70;99.90
28193;DHT22;15473;50.840;3.396;2022-08-24T00:37:56;19.80;99.90
28193;DHT22;15473;50.840;3.396;2022-08-24T00:40:29;19.80;99.90
28193;DHT22;15473;50.840;3.396;2022-08-24T00:43:03;19.70;99.90
28193;DHT22;15473;50.840;3.396;2022-08-24T00:45:43;19.60;99.90
28193;DHT22;15473;50.840;3.396;2022-08-24T00:48:16;19.50;99.90
28193;DHT22;15473;50.840;3.396;2022-08-24T00:50:58;19.50;99.90
28193;DHT22;15473;50.840;3.396;2022-08-24T00:53:36;19.50;99.90
28193;DHT22;15473;50.840;3.396;2022-08-24T00:56:04;19.60;99.90
28193;DHT22;15473;50.840;3.396;2022-08-24T00:58:46;19.60;99.90
28193;DHT22;15473;50.840;3.396;2022-08-24T01:01:17;19.70;99.90
28193;DHT22;15473;50.840;3.396;2022-08-24T01:03:47;19.60;99.90
28193;DHT22;15473;50.840;3.396;2022-08-24T01:06:18;19.60;99.90
28193;DHT22;15473;50.840;3.396;2022-08-24T01:08:48;19.60;99.90
28193;DHT22;15473;50.840;3.396;2022-08-24T01:11:20;19.60;99.90
28193;DHT22;15473;50.840;3.396;2022-08-24T01:13:53;19.70;99.90
28193;DHT22;15473;50.840;3.396;2022-08-24T01:16:23;19.70;99.90
28193;DHT22;15473;50.840;3.396;2022-08-24T01:22:15;19.70;99.90
28193;DHT22;15473;50.840;3.396;2022-08-24T01:24:44;19.70;99.90
28193;DHT22;15473;50.840;3.396;2022-08-24T01:27:15;19.50;99.90
28193;DHT22;15473;50.840;3.396;2022-08-24T01:29:46;19.60;99.90
28193;DHT22;15473;50.840;3.396;2022-08-24T01:32:19;19.50;99.90
28193;DHT22;15473;50.840;3.396;2022-08-24T01:34:50;19.50;99.90
28193;DHT22;15473;50.840;3.396;2022-08-24T01:37:20;19.50;99.90
28193;DHT22;15473;50.840;3.396;2022-08-24T01:39:53;19.50;99.90
28193;DHT22;15473;50.840;3.396;2022-08-24T01:42:23;19.50;99.90
28193;DHT22;15473;50.840;3.396;2022-08-24T01:44:55;19.40;99.90
28193;DHT22;15473;50.840;3.396;2022-08-24T01:47:25;19.30;99.90
28193;DHT22;15473;50.840;3.396;2022-08-24T01:49:55;19.20;99.90
28193;DHT22;15473;50.840;3.396;2022-08-24T01:52:25;19.20;99.90
28193;DHT22;15473;50.840;3.396;2022-08-24T01:54:55;19.20;99.90
28193;DHT22;15473;50.840;3.396;2022-08-24T01:57:26;19.10;99.90
28193;DHT22;15473;50.840;3.396;2022-08-24T01:59:56;19.10;99.90
28193;DHT22;15473;50.840;3.396;2022-08-24T02:02:29;19.10;99.90
28193;DHT22;15473;50.840;3.396;2022-08-24T02:05:00;19.10;99.90
28193;DHT22;15473;50.840;3.396;2022-08-24T02:07:30;19.10;99.90
28193;DHT22;15473;50.840;3.396;2022-08-24T02:10:00;19.20;99.90
28193;DHT22;15473;50.840;3.396;2022-08-24T02:12:32;19.30;99.90
28193;DHT22;15473;50.840;3.396;2022-08-24T02:15:03;19.30;99.90
28193;DHT22;15473;50.840;3.396;2022-08-24T02:17:34;19.20;99.90
28193;DHT22;15473;50.840;3.396;2022-08-24T02:20:06;19.20;99.90
28193;DHT22;15473;50.840;3.396;2022-08-24T02:22:36;19.20;99.90
28193;DHT22;15473;50.840;3.396;2022-08-24T02:25:06;19.20;99.90
28193;DHT22;15473;50.840;3.396;2022-08-24T02:27:36;19.20;99.90
28193;DHT22;15473;50.840;3.396;2022-08-24T02:30:07;19.20;99.90
28193;DHT22;15473;50.840;3.396;2022-08-24T02:32:37;19.10;99.90
28193;DHT22;15473;50.840;3.396;2022-08-24T02:35:08;19.10;99.90
28193;DHT22;15473;50.840;3.396;2022-08-24T02:37:39;18.90;99.90
28193;DHT22;15473;50.840;3.396;2022-08-24T02:40:10;18.90;99.90
28193;DHT22;15473;50.840;3.396;2022-08-24T02:42:41;18.90;99.90
28193;DHT22;15473;50.840;3.396;2022-08-24T02:45:11;18.90;99.90
28193;DHT22;15473;50.840;3.396;2022-08-24T02:47:41;18.90;99.90
28193;DHT22;15473;50.840;3.396;2022-08-24T02:50:13;18.90;99.90
28193;DHT22;15473;50.840;3.396;2022-08-24T02:52:44;18.90;99.90
28193;DHT22;15473;50.840;3.396;2022-08-24T02:55:16;19.00;99.90
28193;DHT22;15473;50.840;3.396;2022-08-24T02:57:47;19.00;99.90
28193;DHT22;15473;50.840;3.396;2022-08-24T03:00:20;19.00;99.90
28193;DHT22;15473;50.840;3.396;2022-08-24T03:02:51;19.00;99.90
28193;DHT22;15473;50.840;3.396;2022-08-24T03:05:22;18.80;99.90
28193;DHT22;15473;50.840;3.396;2022-08-24T03:07:52;18.70;99.90
28193;DHT22;15473;50.840;3.396;2022-08-24T03:10:22;18.60;99.90
28193;DHT22;15473;50.840;3.396;2022-08-24T03:12:53;18.50;99.90
28193;DHT22;15473;50.840;3.396;2022-08-24T03:15:23;18.50;99.90
28193;DHT22;15473;50.840;3.396;2022-08-24T03:17:55;18.40;99.90
28193;DHT22;15473;50.840;3.396;2022-08-24T03:20:25;18.50;99.90
28193;DHT22;15473;50.840;3.396;2022-08-24T03:22:56;18.50;99.90
28193;DHT22;15473;50.840;3.396;2022-08-24T03:25:26;18.50;99.90
28193;DHT22;15473;50.840;3.396;2022-08-24T03:27:56;18.50;99.90
28193;DHT22;15473;50.840;3.396;2022-08-24T03:30:26;18.50;99.90
28193;DHT22;15473;50.840;3.396;2022-08-24T03:32:56;18.40;99.90
28193;DHT22;15473;50.840;3.396;2022-08-24T03:35:26;18.30;99.90
28193;DHT22;15473;50.840;3.396;2022-08-24T03:37:56;18.20;99.90
28193;DHT22;15473;50.840;3.396;2022-08-24T03:40:26;18.30;99.90
28193;DHT22;15473;50.840;3.396;2022-08-24T03:42:59;18.30;99.90
28193;DHT22;15473;50.840;3.396;2022-08-24T03:45:29;18.40;99.90
28193;DHT22;15473;50.840;3.396;2022-08-24T03:47:59;18.40;99.90
28193;DHT22;15473;50.840;3.396;2022-08-24T03:50:29;18.50;99.90
28193;DHT22;15473;50.840;3.396;2022-08-24T03:52:59;18.60;99.90
28193;DHT22;15473;50.840;3.396;2022-08-24T03:55:30;18.50;99.90
28193;DHT22;15473;50.840;3.396;2022-08-24T03:58:01;18.60;99.90
28193;DHT22;15473;50.840;3.396;2022-08-24T04:00:31;18.60;99.90
28193;DHT22;15473;50.840;3.396;2022-08-24T04:03:01;18.60;99.90
28193;DHT22;15473;50.840;3.396;2022-08-24T04:05:31;18.60;99.90
28193;DHT22;15473;50.840;3.396;2022-08-24T04:08:02;18.60;99.90
28193;DHT22;15473;50.840;3.396;2022-08-24T04:10:33;18.50;99.90
28193;DHT22;15473;50.840;3.396;2022-08-24T04:13:03;18.50;99.90
28193;DHT22;15473;50.840;3.396;2022-08-24T04:15:39;18.50;99.90
28193;DHT22;15473;50.840;3.396;2022-08-24T04:18:09;18.40;99.90
28193;DHT22;15473;50.840;3.396;2022-08-24T04:20:41;18.40;99.90
28193;DHT22;15473;50.840;3.396;2022-08-24T04:23:12;18.40;99.90
28193;DHT22;15473;50.840;3.396;2022-08-24T04:25:45;18.20;99.90
28193;DHT22;15473;50.840;3.396;2022-08-24T04:28:18;18.20;99.90
28193;DHT22;15473;50.840;3.396;2022-08-24T04:30:49;18.30;99.90
28193;DHT22;15473;50.840;3.396;2022-08-24T04:33:19;18.30;99.90
28193;DHT22;15473;50.840;3.396;2022-08-24T04:35:49;18.40;99.90
28193;DHT22;15473;50.840;3.396;2022-08-24T04:38:19;18.30;99.90
28193;DHT22;15473;50.840;3.396;2022-08-24T04:40:50;18.30;99.90
28193;DHT22;15473;50.840;3.396;2022-08-24T04:43:20;18.30;99.90
28193;DHT22;15473;50.840;3.396;2022-08-24T04:45:50;18.30;99.90
28193;DHT22;15473;50.840;3.396;2022-08-24T04:48:20;18.40;99.90
28193;DHT22;15473;50.840;3.396;2022-08-24T04:50:50;18.40;99.90
28193;DHT22;15473;50.840;3.396;2022-08-24T04:53:21;18.40;99.90
28193;DHT22;15473;50.840;3.396;2022-08-24T04:55:51;18.40;99.90
28193;DHT22;15473;50.840;3.396;2022-08-24T04:58:21;18.40;99.90
28193;DHT22;15473;50.840;3.396;2022-08-24T05:00:51;18.50;99.90
28193;DHT22;15473;50.840;3.396;2022-08-24T05:03:21;18.50;99.90
28193;DHT22;15473;50.840;3.396;2022-08-24T05:05:51;18.60;99.90
28193;DHT22;15473;50.840;3.396;2022-08-24T05:08:22;18.60;99.90
28193;DHT22;15473;50.840;3.396;2022-08-24T05:10:52;18.70;99.90
28193;DHT22;15473;50.840;3.396;2022-08-24T05:13:22;18.70;99.90
28193;DHT22;15473;50.840;3.396;2022-08-24T05:15:52;18.80;99.90
28193;DHT22;15473;50.840;3.396;2022-08-24T05:18:22;18.80;99.90
28193;DHT22;15473;50.840;3.396;2022-08-24T05:20:52;18.90;99.90
28193;DHT22;15473;50.840;3.396;2022-08-24T05:23:22;19.00;99.90
28193;DHT22;15473;50.840;3.396;2022-08-24T05:25:52;19.00;99.90
28193;DHT22;15473;50.840;3.396;2022-08-24T05:28:24;19.00;99.90
28193;DHT22;15473;50.840;3.396;2022-08-24T05:30:54;18.90;99.90
28193;DHT22;15473;50.840;3.396;2022-08-24T05:33:24;19.00;99.90
28193;DHT22;15473;50.840;3.396;2022-08-24T05:36:00;19.20;99.90
28193;DHT22;15473;50.840;3.396;2022-08-24T05:38:31;19.30;99.90
28193;DHT22;15473;50.840;3.396;2022-08-24T05:41:04;19.40;99.90
28193;DHT22;15473;50.840;3.396;2022-08-24T05:43:34;19.30;99.90
28193;DHT22;15473;50.840;3.396;2022-08-24T05:46:05;19.30;99.90
28193;DHT22;15473;50.840;3.396;2022-08-24T05:48:35;19.50;99.90
28193;DHT22;15473;50.840;3.396;2022-08-24T05:51:07;19.50;99.90
28193;DHT22;15473;50.840;3.396;2022-08-24T05:53:38;19.40;99.90
28193;DHT22;15473;50.840;3.396;2022-08-24T05:56:12;19.50;99.90
28193;DHT22;15473;50.840;3.396;2022-08-24T05:58:45;19.60;99.90
28193;DHT22;15473;50.840;3.396;2022-08-24T06:01:19;19.50;99.90
28193;DHT22;15473;50.840;3.396;2022-08-24T06:03:50;19.50;99.90
28193;DHT22;15473;50.840;3.396;2022-08-24T06:06:21;19.60;99.90
28193;DHT22;15473;50.840;3.396;2022-08-24T06:08:55;19.70;99.90
28193;DHT22;15473;50.840;3.396;2022-08-24T06:11:31;19.90;99.90
28193;DHT22;15473;50.840;3.396;2022-08-24T06:14:13;20.00;99.90
28193;DHT22;15473;50.840;3.396;2022-08-24T06:16:42;20.00;99.90
28193;DHT22;15473;50.840;3.396;2022-08-24T06:19:15;20.00;99.90
28193;DHT22;15473;50.840;3.396;2022-08-24T06:21:48;20.10;99.90
28193;DHT22;15473;50.840;3.396;2022-08-24T06:24:19;20.10;99.90
28193;DHT22;15473;50.840;3.396;2022-08-24T06:26:51;20.10;99.90
28193;DHT22;15473;50.840;3.396;2022-08-24T06:29:56;20.10;99.90
28193;DHT22;15473;50.840;3.396;2022-08-24T06:32:26;20.20;99.90
28193;DHT22;15473;50.840;3.396;2022-08-24T06:34:57;20.30;99.90
28193;DHT22;15473;50.840;3.396;2022-08-24T06:37:27;20.50;99.90
28193;DHT22;15473;50.840;3.396;2022-08-24T06:39:57;20.70;99.90
28193;DHT22;15473;50.840;3.396;2022-08-24T06:42:28;20.90;99.90
28193;DHT22;15473;50.840;3.396;2022-08-24T06:44:59;21.00;99.90
28193;DHT22;15473;50.840;3.396;2022-08-24T06:47:29;21.20;99.90
28193;DHT22;15473;50.840;3.396;2022-08-24T06:49:59;21.40;99.90
28193;DHT22;15473;50.840;3.396;2022-08-24T06:52:29;21.60;99.90
28193;DHT22;15473;50.840;3.396;2022-08-24T06:54:59;21.90;99.90
28193;DHT22;15473;50.840;3.396;2022-08-24T06:57:29;22.10;99.90
28193;DHT22;15473;50.840;3.396;2022-08-24T07:00:00;22.10;99.90
28193;DHT22;15473;50.840;3.396;2022-08-24T07:02:30;22.20;99.90
28193;DHT22;15473;50.840;3.396;2022-08-24T07:05:00;22.50;99.90
28193;DHT22;15473;50.840;3.396;2022-08-24T07:07:30;23.40;99.90
28193;DHT22;15473;50.840;3.396;2022-08-24T07:10:01;24.50;99.90
28193;DHT22;15473;50.840;3.396;2022-08-24T07:12:35;24.40;99.90
28193;DHT22;15473;50.840;3.396;2022-08-24T07:15:06;24.80;99.90
28193;DHT22;15473;50.840;3.396;2022-08-24T07:17:36;25.90;99.90
28193;DHT22;15473;50.840;3.396;2022-08-24T07:20:07;25.70;99.90
28193;DHT22;15473;50.840;3.396;2022-08-24T07:22:38;25.60;99.90
28193;DHT22;15473;50.840;3.396;2022-08-24T07:25:09;25.00;99.90
28193;DHT22;15473;50.840;3.396;2022-08-24T07:27:39;24.30;99.90
28193;DHT22;15473;50.840;3.396;2022-08-24T07:30:11;23.80;99.90
28193;DHT22;15473;50.840;3.396;2022-08-24T07:32:41;23.70;99.90
28193;DHT22;15473;50.840;3.396;2022-08-24T07:35:11;24.00;99.90
28193;DHT22;15473;50.840;3.396;2022-08-24T07:37:41;24.60;99.90
28193;DHT22;15473;50.840;3.396;2022-08-24T07:40:11;25.00;99.90
28193;DHT22;15473;50.840;3.396;2022-08-24T07:42:41;25.30;99.90
28193;DHT22;15473;50.840;3.396;2022-08-24T07:45:12;25.50;99.90
28193;DHT22;15473;50.840;3.396;2022-08-24T07:47:42;25.90;99.90
28193;DHT22;15473;50.840;3.396;2022-08-24T07:50:14;25.50;99.90
28193;DHT22;15473;50.840;3.396;2022-08-24T07:52:45;25.10;99.90
28193;DHT22;15473;50.840;3.396;2022-08-24T07:55:15;24.60;99.90
28193;DHT22;15473;50.840;3.396;2022-08-24T07:57:45;24.40;99.90
28193;DHT22;15473;50.840;3.396;2022-08-24T08:00:17;24.40;99.90
28193;DHT22;15473;50.840;3.396;2022-08-24T08:02:48;24.40;99.90
28193;DHT22;15473;50.840;3.396;2022-08-24T08:05:21;24.40;99.90
28193;DHT22;15473;50.840;3.396;2022-08-24T08:07:51;24.30;99.90
28193;DHT22;15473;50.840;3.396;2022-08-24T08:10:21;24.20;99.90
28193;DHT22;15473;50.840;3.396;2022-08-24T08:12:53;24.30;99.90
28193;DHT22;15473;50.840;3.396;2022-08-24T08:15:23;24.20;99.90
28193;DHT22;15473;50.840;3.396;2022-08-24T08:17:54;24.30;99.90
28193;DHT22;15473;50.840;3.396;2022-08-24T08:20:24;24.30;99.90
28193;DHT22;15473;50.840;3.396;2022-08-24T08:22:54;24.40;99.90
28193;DHT22;15473;50.840;3.396;2022-08-24T08:28:34;24.50;99.90
28193;DHT22;15473;50.840;3.396;2022-08-24T08:31:04;24.50;99.90
28193;DHT22;15473;50.840;3.396;2022-08-24T08:33:34;24.50;99.90
28193;DHT22;15473;50.840;3.396;2022-08-24T08:36:11;24.60;99.90
28193;DHT22;15473;50.840;3.396;2022-08-24T08:38:42;24.80;99.90
28193;DHT22;15473;50.840;3.396;2022-08-24T08:43:56;25.10;99.90
28193;DHT22;15473;50.840;3.396;2022-08-24T08:58:01;25.60;99.90
28193;DHT22;15473;50.840;3.396;2022-08-24T09:00:51;25.70;99.90
28193;DHT22;15473;50.840;3.396;2022-08-24T09:03:54;25.80;99.90
28193;DHT22;15473;50.840;3.396;2022-08-24T09:12:14;26.10;99.90
28193;DHT22;15473;50.840;3.396;2022-08-24T09:15:02;26.10;99.90
28193;DHT22;15473;50.840;3.396;2022-08-24T09:20:44;25.80;99.90
28193;DHT22;15473;50.840;3.396;2022-08-24T09:37:45;25.80;99.90
28193;DHT22;15473;50.840;3.396;2022-08-24T10:06:50;26.30;99.90
28193;DHT22;15473;50.840;3.396;2022-08-24T10:09:39;26.50;99.90
28193;DHT22;15473;50.840;3.396;2022-08-24T10:15:10;26.50;99.90
28193;DHT22;15473;50.840;3.396;2022-08-24T10:25:55;26.60;99.90
28193;DHT22;15473;50.840;3.396;2022-08-24T10:40:02;26.90;99.90
28193;DHT22;15473;50.840;3.396;2022-08-24T10:54:06;27.30;99.90
28193;DHT22;15473;50.840;3.396;2022-08-24T10:57:05;27.30;99.90
28193;DHT22;15473;50.840;3.396;2022-08-24T10:59:30;27.40;99.90
28193;DHT22;15473;50.840;3.396;2022-08-24T11:02:04;27.50;99.90
28193;DHT22;15473;50.840;3.396;2022-08-24T11:04:36;27.60;99.90
28193;DHT22;15473;50.840;3.396;2022-08-24T11:07:15;27.70;99.90
28193;DHT22;15473;50.840;3.396;2022-08-24T11:09:56;27.70;99.90
28193;DHT22;15473;50.840;3.396;2022-08-24T11:15:19;27.60;99.90
28193;DHT22;15473;50.840;3.396;2022-08-24T11:17:59;27.70;99.90
28193;DHT22;15473;50.840;3.396;2022-08-24T11:20:33;27.90;99.90
28193;DHT22;15473;50.840;3.396;2022-08-24T11:26:01;28.50;99.90
28193;DHT22;15473;50.840;3.396;2022-08-24T11:28:36;28.60;99.90
28193;DHT22;15473;50.840;3.396;2022-08-24T11:31:34;28.70;99.90
28193;DHT22;15473;50.840;3.396;2022-08-24T11:34:04;28.60;99.90
28193;DHT22;15473;50.840;3.396;2022-08-24T11:36:35;28.70;99.90
28193;DHT22;15473;50.840;3.396;2022-08-24T11:39:15;28.60;99.90
28193;DHT22;15473;50.840;3.396;2022-08-24T11:47:41;27.80;99.90
28193;DHT22;15473;50.840;3.396;2022-08-24T12:01:58;26.90;99.90
28193;DHT22;15473;50.840;3.396;2022-08-24T12:04:48;26.90;99.90
28193;DHT22;15473;50.840;3.396;2022-08-24T12:12:35;27.00;99.90
28193;DHT22;15473;50.840;3.396;2022-08-24T12:20:51;27.40;99.90
28193;DHT22;15473;50.840;3.396;2022-08-24T12:23:43;27.50;99.90
28193;DHT22;15473;50.840;3.396;2022-08-24T12:29:14;27.90;99.90
28193;DHT22;15473;50.840;3.396;2022-08-24T12:32:00;28.10;99.90
28193;DHT22;15473;50.840;3.396;2022-08-24T12:45:21;28.70;99.90
28193;DHT22;15473;50.840;3.396;2022-08-24T12:48:13;28.70;99.90
28193;DHT22;15473;50.840;3.396;2022-08-24T12:57:09;28.80;99.90
28193;DHT22;15473;50.840;3.396;2022-08-24T12:59:42;28.80;99.90
28193;DHT22;15473;50.840;3.396;2022-08-24T13:07:37;28.90;99.90
28193;DHT22;15473;50.840;3.396;2022-08-24T13:10:03;28.90;99.90
28193;DHT22;15473;50.840;3.396;2022-08-24T13:26:24;29.00;99.90
28193;DHT22;15473;50.840;3.396;2022-08-24T13:29:00;29.10;99.90
28193;DHT22;15473;50.840;3.396;2022-08-24T13:31:33;29.00;99.90
28193;DHT22;15473;50.840;3.396;2022-08-24T13:45:25;29.10;99.90
28193;DHT22;15473;50.840;3.396;2022-08-24T13:54:25;29.00;99.90
28193;DHT22;15473;50.840;3.396;2022-08-24T13:57:02;29.10;99.90
28193;DHT22;15473;50.840;3.396;2022-08-24T14:17:46;29.90;99.90
28193;DHT22;15473;50.840;3.396;2022-08-24T14:20:41;30.10;99.90
28193;DHT22;15473;50.840;3.396;2022-08-24T14:23:56;30.40;99.90
28193;DHT22;15473;50.840;3.396;2022-08-24T14:38:00;30.10;99.90
28193;DHT22;15473;50.840;3.396;2022-08-24T14:40:32;30.20;99.90
28193;DHT22;15473;50.840;3.396;2022-08-24T14:43:42;30.20;99.90
28193;DHT22;15473;50.840;3.396;2022-08-24T14:52:14;30.00;99.90
28193;DHT22;15473;50.840;3.396;2022-08-24T15:01:05;29.90;99.90
28193;DHT22;15473;50.840;3.396;2022-08-24T15:09:20;29.60;99.90
28193;DHT22;15473;50.840;3.396;2022-08-24T15:11:51;29.60;99.90
28193;DHT22;15473;50.840;3.396;2022-08-24T15:14:46;29.60;99.90
28193;DHT22;15473;50.840;3.396;2022-08-24T15:17:16;29.50;99.90
28193;DHT22;15473;50.840;3.396;2022-08-24T15:22:37;29.40;99.90
28193;DHT22;15473;50.840;3.396;2022-08-24T15:25:14;29.20;99.90
28193;DHT22;15473;50.840;3.396;2022-08-24T15:27:53;29.20;99.90
28193;DHT22;15473;50.840;3.396;2022-08-24T15:30:30;29.10;99.90
28193;DHT22;15473;50.840;3.396;2022-08-24T15:33:12;29.10;99.90
28193;DHT22;15473;50.840;3.396;2022-08-24T15:35:48;29.00;99.90
28193;DHT22;15473;50.840;3.396;2022-08-24T15:41:06;28.90;99.90
28193;DHT22;15473;50.840;3.396;2022-08-24T15:43:59;28.80;99.90
28193;DHT22;15473;50.840;3.396;2022-08-24T15:46:37;28.80;99.90
28193;DHT22;15473;50.840;3.396;2022-08-24T15:51:57;28.80;99.90
28193;DHT22;15473;50.840;3.396;2022-08-24T15:57:24;28.90;99.90
28193;DHT22;15473;50.840;3.396;2022-08-24T15:59:44;28.90;99.90
28193;DHT22;15473;50.840;3.396;2022-08-24T16:02:18;28.90;99.90
28193;DHT22;15473;50.840;3.396;2022-08-24T16:05:16;28.90;99.90
28193;DHT22;15473;50.840;3.396;2022-08-24T16:10:38;28.90;99.90
28193;DHT22;15473;50.840;3.396;2022-08-24T16:13:28;28.90;99.90
28193;DHT22;15473;50.840;3.396;2022-08-24T16:16:04;28.90;99.90
28193;DHT22;15473;50.840;3.396;2022-08-24T16:18:46;28.90;99.90
28193;DHT22;15473;50.840;3.396;2022-08-24T16:21:28;28.90;99.90
28193;DHT22;15473;50.840;3.396;2022-08-24T16:24:11;28.80;99.90
28193;DHT22;15473;50.840;3.396;2022-08-24T16:34:55;28.70;99.90
28193;DHT22;15473;50.840;3.396;2022-08-24T16:37:25;28.70;99.90
28193;DHT22;15473;50.840;3.396;2022-08-24T16:39:59;28.80;99.90
28193;DHT22;15473;50.840;3.396;2022-08-24T16:42:30;28.90;99.90
28193;DHT22;15473;50.840;3.396;2022-08-24T16:45:01;28.90;99.90
28193;DHT22;15473;50.840;3.396;2022-08-24T16:47:33;28.90;99.90
28193;DHT22;15473;50.840;3.396;2022-08-24T16:50:04;29.00;99.90
28193;DHT22;15473;50.840;3.396;2022-08-24T16:52:34;29.00;99.90
28193;DHT22;15473;50.840;3.396;2022-08-24T16:55:05;29.00;99.90
28193;DHT22;15473;50.840;3.396;2022-08-24T16:57:35;28.90;99.90
28193;DHT22;15473;50.840;3.396;2022-08-24T17:02:59;28.80;99.90
28193;DHT22;15473;50.840;3.396;2022-08-24T17:05:29;28.70;99.90
28193;DHT22;15473;50.840;3.396;2022-08-24T17:08:00;28.70;99.90
28193;DHT22;15473;50.840;3.396;2022-08-24T17:10:30;28.60;99.90
28193;DHT22;15473;50.840;3.396;2022-08-24T17:13:00;28.50;99.90
28193;DHT22;15473;50.840;3.396;2022-08-24T17:15:30;28.40;99.90
28193;DHT22;15473;50.840;3.396;2022-08-24T17:18:03;28.40;99.90
28193;DHT22;15473;50.840;3.396;2022-08-24T17:20:35;28.40;99.90
28193;DHT22;15473;50.840;3.396;2022-08-24T17:23:05;28.30;99.90
28193;DHT22;15473;50.840;3.396;2022-08-24T17:25:37;28.20;99.90
28193;DHT22;15473;50.840;3.396;2022-08-24T17:28:12;28.10;99.90
28193;DHT22;15473;50.840;3.396;2022-08-24T17:33:35;27.90;99.90
28193;DHT22;15473;50.840;3.396;2022-08-24T17:36:06;27.90;99.90
28193;DHT22;15473;50.840;3.396;2022-08-24T17:38:41;27.90;99.90
28193;DHT22;15473;50.840;3.396;2022-08-24T17:41:12;27.70;99.90
28193;DHT22;15473;50.840;3.396;2022-08-24T17:43:42;27.60;99.90
28193;DHT22;15473;50.840;3.396;2022-08-24T17:46:20;27.40;99.90
28193;DHT22;15473;50.840;3.396;2022-08-24T17:48:50;27.10;99.90
28193;DHT22;15473;50.840;3.396;2022-08-24T17:51:20;27.00;99.90
28193;DHT22;15473;50.840;3.396;2022-08-24T17:53:51;26.80;99.90
28193;DHT22;15473;50.840;3.396;2022-08-24T17:56:30;26.80;99.90
28193;DHT22;15473;50.840;3.396;2022-08-24T17:58:52;26.70;99.90
28193;DHT22;15473;50.840;3.396;2022-08-24T18:01:40;26.60;99.90
28193;DHT22;15473;50.840;3.396;2022-08-24T18:04:10;26.50;99.90
28193;DHT22;15473;50.840;3.396;2022-08-24T18:06:41;26.50;99.90
28193;DHT22;15473;50.840;3.396;2022-08-24T18:12:12;26.40;99.90
28193;DHT22;15473;50.840;3.396;2022-08-24T18:14:42;26.30;99.90
28193;DHT22;15473;50.840;3.396;2022-08-24T18:17:15;26.20;99.90
28193;DHT22;15473;50.840;3.396;2022-08-24T18:19:48;26.10;99.90
28193;DHT22;15473;50.840;3.396;2022-08-24T18:22:18;26.00;99.90
28193;DHT22;15473;50.840;3.396;2022-08-24T18:24:49;25.90;99.90
28193;DHT22;15473;50.840;3.396;2022-08-24T18:27:23;25.80;99.90
28193;DHT22;15473;50.840;3.396;2022-08-24T18:29:53;25.70;99.90
28193;DHT22;15473;50.840;3.396;2022-08-24T18:32:24;25.60;99.90
28193;DHT22;15473;50.840;3.396;2022-08-24T18:34:54;25.50;99.90
28193;DHT22;15473;50.840;3.396;2022-08-24T18:37:24;25.40;99.90
28193;DHT22;15473;50.840;3.396;2022-08-24T18:39:54;25.30;99.90
28193;DHT22;15473;50.840;3.396;2022-08-24T18:42:26;25.30;99.90
28193;DHT22;15473;50.840;3.396;2022-08-24T18:44:56;25.10;99.90
28193;DHT22;15473;50.840;3.396;2022-08-24T18:47:28;25.10;99.90
28193;DHT22;15473;50.840;3.396;2022-08-24T18:49:58;24.90;99.90
28193;DHT22;15473;50.840;3.396;2022-08-24T18:52:30;24.90;99.90
28193;DHT22;15473;50.840;3.396;2022-08-24T18:55:00;24.80;99.90
28193;DHT22;15473;50.840;3.396;2022-08-24T18:57:31;24.70;99.90
28193;DHT22;15473;50.840;3.396;2022-08-24T19:00:01;24.60;99.90
28193;DHT22;15473;50.840;3.396;2022-08-24T19:02:31;24.60;99.90
28193;DHT22;15473;50.840;3.396;2022-08-24T19:07:37;24.50;99.90
28193;DHT22;15473;50.840;3.396;2022-08-24T19:10:10;24.40;99.90
28193;DHT22;15473;50.840;3.396;2022-08-24T19:12:43;24.30;99.90
28193;DHT22;15473;50.840;3.396;2022-08-24T19:15:15;24.30;99.90
28193;DHT22;15473;50.840;3.396;2022-08-24T19:17:45;24.10;99.90
28193;DHT22;15473;50.840;3.396;2022-08-24T19:20:15;24.10;99.90
28193;DHT22;15473;50.840;3.396;2022-08-24T19:22:46;24.00;99.90
28193;DHT22;15473;50.840;3.396;2022-08-24T19:25:19;23.90;99.90
28193;DHT22;15473;50.840;3.396;2022-08-24T19:27:49;23.80;99.90
28193;DHT22;15473;50.840;3.396;2022-08-24T19:30:20;23.70;99.90
28193;DHT22;15473;50.840;3.396;2022-08-24T19:32:50;23.70;99.90
28193;DHT22;15473;50.840;3.396;2022-08-24T19:35:20;23.60;99.90
28193;DHT22;15473;50.840;3.396;2022-08-24T19:37:50;23.60;99.90
28193;DHT22;15473;50.840;3.396;2022-08-24T19:40:21;23.50;99.90
28193;DHT22;15473;50.840;3.396;2022-08-24T19:42:51;23.40;99.90
28193;DHT22;15473;50.840;3.396;2022-08-24T19:45:25;23.40;99.90
28193;DHT22;15473;50.840;3.396;2022-08-24T19:48:13;23.30;99.90
28193;DHT22;15473;50.840;3.396;2022-08-24T19:50:45;23.30;99.90
28193;DHT22;15473;50.840;3.396;2022-08-24T19:53:15;23.30;99.90
28193;DHT22;15473;50.840;3.396;2022-08-24T19:55:45;23.20;99.90
28193;DHT22;15473;50.840;3.396;2022-08-24T20:01:08;23.10;99.90
28193;DHT22;15473;50.840;3.396;2022-08-24T20:03:33;23.10;99.90
28193;DHT22;15473;50.840;3.396;2022-08-24T20:06:04;23.00;99.90
28193;DHT22;15473;50.840;3.396;2022-08-24T20:08:34;22.90;99.90
28193;DHT22;15473;50.840;3.396;2022-08-24T20:11:06;22.90;99.90
28193;DHT22;15473;50.840;3.396;2022-08-24T20:13:37;22.80;99.90
28193;DHT22;15473;50.840;3.396;2022-08-24T20:16:09;22.80;99.90
28193;DHT22;15473;50.840;3.396;2022-08-24T20:18:40;22.70;99.90
28193;DHT22;15473;50.840;3.396;2022-08-24T20:21:11;22.70;99.90
28193;DHT22;15473;50.840;3.396;2022-08-24T20:23:42;22.60;99.90
28193;DHT22;15473;50.840;3.396;2022-08-24T20:26:13;22.60;99.90
28193;DHT22;15473;50.840;3.396;2022-08-24T20:28:46;22.50;99.90
28193;DHT22;15473;50.840;3.396;2022-08-24T20:31:18;22.50;99.90
28193;DHT22;15473;50.840;3.396;2022-08-24T20:33:48;22.40;99.90
28193;DHT22;15473;50.840;3.396;2022-08-24T20:36:31;22.40;99.90
28193;DHT22;15473;50.840;3.396;2022-08-24T20:39:04;22.30;99.90
28193;DHT22;15473;50.840;3.396;2022-08-24T20:41:35;22.40;99.90
28193;DHT22;15473;50.840;3.396;2022-08-24T20:44:05;22.40;99.90